Riviere-Au-Tonnerre, Canada
Current Conditions -  °F | °C
As of 6:02 PM on Wednesday 17 Dec 2014 (Local Time) from CYGV Reporting Station
Overcast Overcast  
Wind Chill: 11°   Ceiling: 1600
Heat Index: 23°   Visibility: 9mi
Dew Point: 19°   Wind: 14mph
Humidity: 86%   Direction: 60°ENE
Pressure: 30.06"   Gusts: 20mph
Location:  50.27°N, 64.77°W
Report Text: CYGV 172302Z AUTO 06012G17KT 9SM BKN016 BKN029 OVC036 M05/M07 A3006 RMK SLP180
Loading
Personal Weather Stations






























Interactive Weather Map New forecast layout! Learn more

10-Day Weather Forecast

Advertisements
Track Severe Weather on mobile